sensor_id;sensor_type;location;lat;lon;timestamp;P1;durP1;ratioP1;P2;durP2;ratioP2
8927;SDS011;4499;48.304;11.902;2023-04-03T00:01:15;7.83;;;5.57;;
8927;SDS011;4499;48.304;11.902;2023-04-03T00:03:44;7.37;;;5.43;;
8927;SDS011;4499;48.304;11.902;2023-04-03T00:06:13;7.23;;;5.80;;
8927;SDS011;4499;48.304;11.902;2023-04-03T00:08:42;8.10;;;5.97;;
8927;SDS011;4499;48.304;11.902;2023-04-03T00:11:11;6.57;;;5.77;;
8927;SDS011;4499;48.304;11.902;2023-04-03T00:13:39;9.23;;;5.60;;
8927;SDS011;4499;48.304;11.902;2023-04-03T00:16:08;6.83;;;5.90;;
8927;SDS011;4499;48.304;11.902;2023-04-03T00:18:38;6.90;;;6.00;;
8927;SDS011;4499;48.304;11.902;2023-04-03T00:21:07;7.17;;;5.73;;
8927;SDS011;4499;48.304;11.902;2023-04-03T00:23:37;6.43;;;5.60;;
8927;SDS011;4499;48.304;11.902;2023-04-03T00:26:07;6.50;;;5.60;;
8927;SDS011;4499;48.304;11.902;2023-04-03T00:28:35;6.40;;;5.47;;
8927;SDS011;4499;48.304;11.902;2023-04-03T00:31:03;8.33;;;5.80;;
8927;SDS011;4499;48.304;11.902;2023-04-03T00:33:31;6.20;;;5.53;;
8927;SDS011;4499;48.304;11.902;2023-04-03T00:36:04;6.57;;;5.43;;
8927;SDS011;4499;48.304;11.902;2023-04-03T00:38:33;7.37;;;5.83;;
8927;SDS011;4499;48.304;11.902;2023-04-03T00:41:02;7.10;;;5.80;;
8927;SDS011;4499;48.304;11.902;2023-04-03T00:43:31;7.47;;;5.87;;
8927;SDS011;4499;48.304;11.902;2023-04-03T00:45:59;6.93;;;5.73;;
8927;SDS011;4499;48.304;11.902;2023-04-03T00:48:32;6.17;;;5.57;;
8927;SDS011;4499;48.304;11.902;2023-04-03T00:51:03;6.80;;;6.07;;
8927;SDS011;4499;48.304;11.902;2023-04-03T00:53:35;7.07;;;6.03;;
8927;SDS011;4499;48.304;11.902;2023-04-03T00:56:07;6.80;;;5.53;;
8927;SDS011;4499;48.304;11.902;2023-04-03T00:58:39;7.17;;;5.77;;
8927;SDS011;4499;48.304;11.902;2023-04-03T01:01:12;6.90;;;5.43;;
8927;SDS011;4499;48.304;11.902;2023-04-03T01:03:44;7.87;;;5.57;;
8927;SDS011;4499;48.304;11.902;2023-04-03T01:06:13;7.67;;;5.70;;
8927;SDS011;4499;48.304;11.902;2023-04-03T01:08:43;6.63;;;5.40;;
8927;SDS011;4499;48.304;11.902;2023-04-03T01:11:13;7.00;;;5.23;;
8927;SDS011;4499;48.304;11.902;2023-04-03T01:13:42;7.77;;;5.63;;
8927;SDS011;4499;48.304;11.902;2023-04-03T01:16:10;6.10;;;5.50;;
8927;SDS011;4499;48.304;11.902;2023-04-03T01:18:39;7.10;;;5.20;;
8927;SDS011;4499;48.304;11.902;2023-04-03T01:21:16;5.87;;;5.00;;
8927;SDS011;4499;48.304;11.902;2023-04-03T01:24:11;6.83;;;5.30;;
8927;SDS011;4499;48.304;11.902;2023-04-03T01:26:48;6.27;;;4.80;;
8927;SDS011;4499;48.304;11.902;2023-04-03T01:29:18;5.63;;;4.50;;
8927;SDS011;4499;48.304;11.902;2023-04-03T01:31:49;6.27;;;4.70;;
8927;SDS011;4499;48.304;11.902;2023-04-03T01:34:19;4.73;;;4.23;;
8927;SDS011;4499;48.304;11.902;2023-04-03T01:36:47;5.90;;;4.87;;
8927;SDS011;4499;48.304;11.902;2023-04-03T01:39:15;4.97;;;4.40;;
8927;SDS011;4499;48.304;11.902;2023-04-03T01:41:44;5.23;;;4.23;;
8927;SDS011;4499;48.304;11.902;2023-04-03T01:44:12;6.70;;;4.50;;
8927;SDS011;4499;48.304;11.902;2023-04-03T01:46:41;5.00;;;4.23;;
8927;SDS011;4499;48.304;11.902;2023-04-03T01:49:11;5.17;;;4.27;;
8927;SDS011;4499;48.304;11.902;2023-04-03T01:51:39;5.40;;;4.30;;
8927;SDS011;4499;48.304;11.902;2023-04-03T01:54:07;5.33;;;4.00;;
8927;SDS011;4499;48.304;11.902;2023-04-03T01:56:35;5.73;;;4.57;;
8927;SDS011;4499;48.304;11.902;2023-04-03T01:59:05;5.00;;;4.10;;
8927;SDS011;4499;48.304;11.902;2023-04-03T02:01:33;5.60;;;4.40;;
8927;SDS011;4499;48.304;11.902;2023-04-03T02:04:01;4.80;;;4.10;;
8927;SDS011;4499;48.304;11.902;2023-04-03T02:06:30;4.73;;;4.20;;
8927;SDS011;4499;48.304;11.902;2023-04-03T02:08:58;6.20;;;4.33;;
8927;SDS011;4499;48.304;11.902;2023-04-03T02:11:26;6.30;;;4.23;;
8927;SDS011;4499;48.304;11.902;2023-04-03T02:13:54;5.20;;;4.33;;
8927;SDS011;4499;48.304;11.902;2023-04-03T02:16:22;4.73;;;4.00;;
8927;SDS011;4499;48.304;11.902;2023-04-03T02:18:51;5.17;;;3.80;;
8927;SDS011;4499;48.304;11.902;2023-04-03T02:21:19;6.20;;;4.00;;
8927;SDS011;4499;48.304;11.902;2023-04-03T02:23:48;4.87;;;3.87;;
8927;SDS011;4499;48.304;11.902;2023-04-03T02:26:17;7.20;;;4.47;;
8927;SDS011;4499;48.304;11.902;2023-04-03T02:28:45;4.83;;;3.77;;
8927;SDS011;4499;48.304;11.902;2023-04-03T02:31:13;4.37;;;3.97;;
8927;SDS011;4499;48.304;11.902;2023-04-03T02:33:42;4.73;;;4.00;;
8927;SDS011;4499;48.304;11.902;2023-04-03T02:36:10;5.53;;;3.80;;
8927;SDS011;4499;48.304;11.902;2023-04-03T02:38:38;5.33;;;3.80;;
8927;SDS011;4499;48.304;11.902;2023-04-03T02:41:08;5.33;;;4.10;;
8927;SDS011;4499;48.304;11.902;2023-04-03T02:43:39;4.27;;;3.67;;
8927;SDS011;4499;48.304;11.902;2023-04-03T02:46:07;5.57;;;3.40;;
8927;SDS011;4499;48.304;11.902;2023-04-03T02:48:36;5.10;;;3.70;;
8927;SDS011;4499;48.304;11.902;2023-04-03T02:51:04;5.10;;;4.00;;
8927;SDS011;4499;48.304;11.902;2023-04-03T02:53:32;6.17;;;3.70;;
8927;SDS011;4499;48.304;11.902;2023-04-03T02:56:01;4.10;;;3.60;;
8927;SDS011;4499;48.304;11.902;2023-04-03T02:58:30;4.60;;;3.77;;
8927;SDS011;4499;48.304;11.902;2023-04-03T03:00:58;4.50;;;3.60;;
8927;SDS011;4499;48.304;11.902;2023-04-03T03:03:26;4.43;;;3.57;;
8927;SDS011;4499;48.304;11.902;2023-04-03T03:06:00;4.50;;;3.50;;
8927;SDS011;4499;48.304;11.902;2023-04-03T03:08:30;6.67;;;3.83;;
8927;SDS011;4499;48.304;11.902;2023-04-03T03:10:58;6.23;;;3.80;;
8927;SDS011;4499;48.304;11.902;2023-04-03T03:13:26;5.17;;;3.67;;
8927;SDS011;4499;48.304;11.902;2023-04-03T03:15:56;4.80;;;3.70;;
8927;SDS011;4499;48.304;11.902;2023-04-03T03:18:24;5.07;;;3.73;;
8927;SDS011;4499;48.304;11.902;2023-04-03T03:20:52;4.57;;;3.63;;
8927;SDS011;4499;48.304;11.902;2023-04-03T03:23:21;5.03;;;3.47;;
8927;SDS011;4499;48.304;11.902;2023-04-03T03:25:54;5.00;;;3.60;;
8927;SDS011;4499;48.304;11.902;2023-04-03T03:28:22;5.03;;;3.80;;
8927;SDS011;4499;48.304;11.902;2023-04-03T03:30:51;6.03;;;3.63;;
8927;SDS011;4499;48.304;11.902;2023-04-03T03:33:21;4.83;;;3.47;;
8927;SDS011;4499;48.304;11.902;2023-04-03T03:35:49;4.43;;;3.53;;
8927;SDS011;4499;48.304;11.902;2023-04-03T03:38:17;5.93;;;3.70;;
8927;SDS011;4499;48.304;11.902;2023-04-03T03:40:46;6.03;;;3.60;;
8927;SDS011;4499;48.304;11.902;2023-04-03T03:43:14;4.60;;;3.57;;
8927;SDS011;4499;48.304;11.902;2023-04-03T03:45:43;4.87;;;3.90;;
8927;SDS011;4499;48.304;11.902;2023-04-03T03:48:12;5.67;;;4.07;;
8927;SDS011;4499;48.304;11.902;2023-04-03T03:50:42;5.10;;;3.93;;
8927;SDS011;4499;48.304;11.902;2023-04-03T03:53:10;4.87;;;4.30;;
8927;SDS011;4499;48.304;11.902;2023-04-03T03:55:38;6.70;;;4.07;;
8927;SDS011;4499;48.304;11.902;2023-04-03T03:58:06;4.10;;;3.67;;
8927;SDS011;4499;48.304;11.902;2023-04-03T04:00:34;6.63;;;4.23;;
8927;SDS011;4499;48.304;11.902;2023-04-03T04:03:02;4.83;;;3.70;;
8927;SDS011;4499;48.304;11.902;2023-04-03T04:05:31;4.57;;;3.97;;
8927;SDS011;4499;48.304;11.902;2023-04-03T04:08:00;5.93;;;3.97;;
8927;SDS011;4499;48.304;11.902;2023-04-03T04:10:30;5.40;;;4.07;;
8927;SDS011;4499;48.304;11.902;2023-04-03T04:12:58;4.60;;;3.70;;
8927;SDS011;4499;48.304;11.902;2023-04-03T04:15:26;4.83;;;4.17;;
8927;SDS011;4499;48.304;11.902;2023-04-03T04:17:55;5.07;;;4.00;;
8927;SDS011;4499;48.304;11.902;2023-04-03T04:20:23;5.10;;;3.83;;
8927;SDS011;4499;48.304;11.902;2023-04-03T04:22:51;5.30;;;3.90;;
8927;SDS011;4499;48.304;11.902;2023-04-03T04:25:21;6.47;;;3.90;;
8927;SDS011;4499;48.304;11.902;2023-04-03T04:27:49;5.77;;;4.10;;
8927;SDS011;4499;48.304;11.902;2023-04-03T04:30:17;5.03;;;4.27;;
8927;SDS011;4499;48.304;11.902;2023-04-03T04:32:45;5.30;;;4.10;;
8927;SDS011;4499;48.304;11.902;2023-04-03T04:35:13;5.50;;;3.77;;
8927;SDS011;4499;48.304;11.902;2023-04-03T04:37:42;4.77;;;3.83;;
8927;SDS011;4499;48.304;11.902;2023-04-03T04:40:11;6.23;;;4.17;;
8927;SDS011;4499;48.304;11.902;2023-04-03T04:42:40;5.03;;;4.07;;
8927;SDS011;4499;48.304;11.902;2023-04-03T04:45:09;6.20;;;4.40;;
8927;SDS011;4499;48.304;11.902;2023-04-03T04:47:38;6.93;;;4.07;;
8927;SDS011;4499;48.304;11.902;2023-04-03T04:50:06;4.97;;;3.63;;
8927;SDS011;4499;48.304;11.902;2023-04-03T04:52:35;7.43;;;4.17;;
8927;SDS011;4499;48.304;11.902;2023-04-03T04:55:03;7.87;;;4.13;;
8927;SDS011;4499;48.304;11.902;2023-04-03T04:57:32;5.53;;;4.00;;
8927;SDS011;4499;48.304;11.902;2023-04-03T05:00:03;4.67;;;4.10;;
8927;SDS011;4499;48.304;11.902;2023-04-03T05:02:32;4.43;;;3.83;;
8927;SDS011;4499;48.304;11.902;2023-04-03T05:05:00;6.97;;;4.03;;
8927;SDS011;4499;48.304;11.902;2023-04-03T05:07:30;6.13;;;4.40;;
8927;SDS011;4499;48.304;11.902;2023-04-03T05:09:58;5.90;;;4.03;;
8927;SDS011;4499;48.304;11.902;2023-04-03T05:12:27;5.53;;;3.90;;
8927;SDS011;4499;48.304;11.902;2023-04-03T05:14:55;4.63;;;3.97;;
8927;SDS011;4499;48.304;11.902;2023-04-03T05:17:24;8.07;;;4.57;;
8927;SDS011;4499;48.304;11.902;2023-04-03T05:19:52;6.20;;;4.47;;
8927;SDS011;4499;48.304;11.902;2023-04-03T05:22:20;5.13;;;4.53;;
8927;SDS011;4499;48.304;11.902;2023-04-03T05:24:51;6.93;;;4.47;;
8927;SDS011;4499;48.304;11.902;2023-04-03T05:27:19;6.63;;;4.70;;
8927;SDS011;4499;48.304;11.902;2023-04-03T05:29:49;6.53;;;4.73;;
8927;SDS011;4499;48.304;11.902;2023-04-03T05:32:17;6.07;;;4.30;;
8927;SDS011;4499;48.304;11.902;2023-04-03T05:34:47;5.13;;;4.00;;
8927;SDS011;4499;48.304;11.902;2023-04-03T05:37:15;6.00;;;4.40;;
8927;SDS011;4499;48.304;11.902;2023-04-03T05:39:44;6.20;;;4.50;;
8927;SDS011;4499;48.304;11.902;2023-04-03T05:42:12;7.93;;;4.70;;
8927;SDS011;4499;48.304;11.902;2023-04-03T05:44:40;6.43;;;4.47;;
8927;SDS011;4499;48.304;11.902;2023-04-03T05:47:08;7.10;;;4.70;;
8927;SDS011;4499;48.304;11.902;2023-04-03T05:49:36;6.07;;;4.23;;
8927;SDS011;4499;48.304;11.902;2023-04-03T05:52:10;8.00;;;4.70;;
8927;SDS011;4499;48.304;11.902;2023-04-03T05:54:45;7.90;;;4.97;;
8927;SDS011;4499;48.304;11.902;2023-04-03T05:57:14;5.57;;;4.60;;
8927;SDS011;4499;48.304;11.902;2023-04-03T05:59:44;6.87;;;4.73;;
8927;SDS011;4499;48.304;11.902;2023-04-03T06:02:15;7.70;;;5.10;;
8927;SDS011;4499;48.304;11.902;2023-04-03T06:04:44;8.00;;;4.97;;
8927;SDS011;4499;48.304;11.902;2023-04-03T06:07:16;7.87;;;4.97;;
8927;SDS011;4499;48.304;11.902;2023-04-03T06:09:48;5.17;;;4.53;;
8927;SDS011;4499;48.304;11.902;2023-04-03T06:12:17;5.97;;;4.37;;
8927;SDS011;4499;48.304;11.902;2023-04-03T06:14:46;6.73;;;4.80;;
8927;SDS011;4499;48.304;11.902;2023-04-03T06:17:14;7.57;;;5.13;;
8927;SDS011;4499;48.304;11.902;2023-04-03T06:19:44;6.97;;;4.80;;
8927;SDS011;4499;48.304;11.902;2023-04-03T06:22:13;9.87;;;5.33;;
8927;SDS011;4499;48.304;11.902;2023-04-03T06:24:43;6.10;;;5.10;;
8927;SDS011;4499;48.304;11.902;2023-04-03T06:27:11;6.90;;;5.07;;
8927;SDS011;4499;48.304;11.902;2023-04-03T06:29:39;7.00;;;5.23;;
8927;SDS011;4499;48.304;11.902;2023-04-03T06:32:07;7.57;;;5.03;;
8927;SDS011;4499;48.304;11.902;2023-04-03T06:34:35;8.33;;;5.40;;
8927;SDS011;4499;48.304;11.902;2023-04-03T06:37:04;6.93;;;5.50;;
8927;SDS011;4499;48.304;11.902;2023-04-03T06:39:32;9.30;;;5.67;;
8927;SDS011;4499;48.304;11.902;2023-04-03T06:42:02;8.00;;;5.30;;
8927;SDS011;4499;48.304;11.902;2023-04-03T06:44:30;7.37;;;5.23;;
8927;SDS011;4499;48.304;11.902;2023-04-03T06:47:00;7.80;;;4.97;;
8927;SDS011;4499;48.304;11.902;2023-04-03T06:49:28;8.30;;;5.63;;
8927;SDS011;4499;48.304;11.902;2023-04-03T06:51:56;8.83;;;5.43;;
8927;SDS011;4499;48.304;11.902;2023-04-03T06:54:27;7.47;;;5.77;;
8927;SDS011;4499;48.304;11.902;2023-04-03T06:56:55;9.10;;;5.70;;
8927;SDS011;4499;48.304;11.902;2023-04-03T06:59:25;7.57;;;5.47;;
8927;SDS011;4499;48.304;11.902;2023-04-03T07:01:54;7.90;;;5.90;;
8927;SDS011;4499;48.304;11.902;2023-04-03T07:04:22;7.17;;;5.70;;
8927;SDS011;4499;48.304;11.902;2023-04-03T07:06:50;8.03;;;5.33;;
8927;SDS011;4499;48.304;11.902;2023-04-03T07:09:18;9.03;;;5.83;;
8927;SDS011;4499;48.304;11.902;2023-04-03T07:11:50;9.00;;;5.47;;
8927;SDS011;4499;48.304;11.902;2023-04-03T07:14:18;8.37;;;5.67;;
8927;SDS011;4499;48.304;11.902;2023-04-03T07:16:48;9.43;;;6.20;;
8927;SDS011;4499;48.304;11.902;2023-04-03T07:19:17;9.33;;;6.20;;
8927;SDS011;4499;48.304;11.902;2023-04-03T07:21:45;7.90;;;5.80;;
8927;SDS011;4499;48.304;11.902;2023-04-03T07:24:14;7.50;;;5.83;;
8927;SDS011;4499;48.304;11.902;2023-04-03T07:26:42;7.17;;;5.60;;
8927;SDS011;4499;48.304;11.902;2023-04-03T07:29:11;9.73;;;5.70;;
8927;SDS011;4499;48.304;11.902;2023-04-03T07:31:41;8.63;;;6.07;;
8927;SDS011;4499;48.304;11.902;2023-04-03T07:34:12;7.23;;;5.67;;
8927;SDS011;4499;48.304;11.902;2023-04-03T07:36:41;8.43;;;5.43;;
8927;SDS011;4499;48.304;11.902;2023-04-03T07:39:09;8.07;;;5.70;;
8927;SDS011;4499;48.304;11.902;2023-04-03T07:41:37;8.70;;;5.70;;
8927;SDS011;4499;48.304;11.902;2023-04-03T07:44:05;8.00;;;6.00;;
8927;SDS011;4499;48.304;11.902;2023-04-03T07:46:35;8.33;;;5.60;;
8927;SDS011;4499;48.304;11.902;2023-04-03T07:49:04;6.93;;;5.37;;
8927;SDS011;4499;48.304;11.902;2023-04-03T07:51:34;7.13;;;4.90;;
8927;SDS011;4499;48.304;11.902;2023-04-03T07:54:02;7.13;;;5.07;;
8927;SDS011;4499;48.304;11.902;2023-04-03T07:56:31;6.70;;;5.13;;
8927;SDS011;4499;48.304;11.902;2023-04-03T07:58:59;6.27;;;4.87;;
8927;SDS011;4499;48.304;11.902;2023-04-03T08:01:28;7.27;;;4.90;;
8927;SDS011;4499;48.304;11.902;2023-04-03T08:03:58;7.90;;;5.83;;
8927;SDS011;4499;48.304;11.902;2023-04-03T08:06:27;6.37;;;4.83;;
8927;SDS011;4499;48.304;11.902;2023-04-03T08:09:13;7.40;;;4.90;;
8927;SDS011;4499;48.304;11.902;2023-04-03T08:11:42;6.93;;;4.23;;
8927;SDS011;4499;48.304;11.902;2023-04-03T08:14:11;7.13;;;4.30;;
8927;SDS011;4499;48.304;11.902;2023-04-03T08:16:43;9.10;;;4.57;;
8927;SDS011;4499;48.304;11.902;2023-04-03T08:19:12;6.63;;;4.53;;
8927;SDS011;4499;48.304;11.902;2023-04-03T08:21:51;8.60;;;4.60;;
8927;SDS011;4499;48.304;11.902;2023-04-03T08:24:22;9.37;;;4.77;;
8927;SDS011;4499;48.304;11.902;2023-04-03T08:26:50;7.77;;;4.60;;
8927;SDS011;4499;48.304;11.902;2023-04-03T08:29:18;5.83;;;4.00;;
8927;SDS011;4499;48.304;11.902;2023-04-03T08:31:47;4.80;;;4.03;;
8927;SDS011;4499;48.304;11.902;2023-04-03T08:34:16;6.50;;;4.50;;
8927;SDS011;4499;48.304;11.902;2023-04-03T08:36:45;7.00;;;4.33;;
8927;SDS011;4499;48.304;11.902;2023-04-03T08:39:13;6.77;;;4.20;;
8927;SDS011;4499;48.304;11.902;2023-04-03T08:41:43;6.77;;;4.40;;
8927;SDS011;4499;48.304;11.902;2023-04-03T08:44:15;7.23;;;4.33;;
8927;SDS011;4499;48.304;11.902;2023-04-03T08:46:54;8.87;;;4.40;;
8927;SDS011;4499;48.304;11.902;2023-04-03T08:49:32;8.20;;;4.13;;
8927;SDS011;4499;48.304;11.902;2023-04-03T08:52:07;7.93;;;4.13;;
8927;SDS011;4499;48.304;11.902;2023-04-03T08:54:41;10.57;;;4.37;;
8927;SDS011;4499;48.304;11.902;2023-04-03T08:57:20;6.30;;;3.90;;
8927;SDS011;4499;48.304;11.902;2023-04-03T08:59:59;6.03;;;4.17;;
8927;SDS011;4499;48.304;11.902;2023-04-03T09:02:31;5.73;;;4.00;;
8927;SDS011;4499;48.304;11.902;2023-04-03T09:05:05;6.90;;;4.20;;
8927;SDS011;4499;48.304;11.902;2023-04-03T09:07:42;6.67;;;4.70;;
8927;SDS011;4499;48.304;11.902;2023-04-03T09:10:15;5.73;;;3.80;;
8927;SDS011;4499;48.304;11.902;2023-04-03T09:12:53;4.97;;;3.43;;
8927;SDS011;4499;48.304;11.902;2023-04-03T09:15:27;6.67;;;3.87;;
8927;SDS011;4499;48.304;11.902;2023-04-03T09:18:05;5.57;;;3.90;;
8927;SDS011;4499;48.304;11.902;2023-04-03T09:20:40;4.70;;;3.70;;
8927;SDS011;4499;48.304;11.902;2023-04-03T09:23:15;6.33;;;3.67;;
8927;SDS011;4499;48.304;11.902;2023-04-03T09:25:48;5.80;;;3.87;;
8927;SDS011;4499;48.304;11.902;2023-04-03T09:28:22;6.47;;;3.40;;
8927;SDS011;4499;48.304;11.902;2023-04-03T09:30:51;6.53;;;3.83;;
8927;SDS011;4499;48.304;11.902;2023-04-03T09:33:19;7.20;;;3.90;;
8927;SDS011;4499;48.304;11.902;2023-04-03T09:35:48;5.73;;;3.63;;
8927;SDS011;4499;48.304;11.902;2023-04-03T09:38:19;5.43;;;3.70;;
8927;SDS011;4499;48.304;11.902;2023-04-03T09:40:49;5.17;;;3.57;;
8927;SDS011;4499;48.304;11.902;2023-04-03T09:43:27;4.57;;;3.00;;
8927;SDS011;4499;48.304;11.902;2023-04-03T09:45:57;6.03;;;3.03;;
8927;SDS011;4499;48.304;11.902;2023-04-03T09:48:50;4.43;;;3.23;;
8927;SDS011;4499;48.304;11.902;2023-04-03T09:51:34;6.03;;;3.30;;
8927;SDS011;4499;48.304;11.902;2023-04-03T09:54:23;7.27;;;3.60;;
8927;SDS011;4499;48.304;11.902;2023-04-03T09:57:06;5.07;;;3.10;;
8927;SDS011;4499;48.304;11.902;2023-04-03T09:59:38;6.43;;;3.60;;
8927;SDS011;4499;48.304;11.902;2023-04-03T10:02:30;4.87;;;3.03;;
8927;SDS011;4499;48.304;11.902;2023-04-03T10:05:02;4.97;;;3.00;;
8927;SDS011;4499;48.304;11.902;2023-04-03T10:07:36;4.13;;;2.70;;
8927;SDS011;4499;48.304;11.902;2023-04-03T10:10:17;6.27;;;3.17;;
8927;SDS011;4499;48.304;11.902;2023-04-03T10:12:49;6.73;;;3.10;;
8927;SDS011;4499;48.304;11.902;2023-04-03T10:15:34;6.50;;;2.90;;
8927;SDS011;4499;48.304;11.902;2023-04-03T10:18:07;4.73;;;2.67;;
8927;SDS011;4499;48.304;11.902;2023-04-03T10:20:50;4.37;;;2.67;;
8927;SDS011;4499;48.304;11.902;2023-04-03T10:23:21;5.50;;;2.70;;
8927;SDS011;4499;48.304;11.902;2023-04-03T10:25:59;4.27;;;2.60;;
8927;SDS011;4499;48.304;11.902;2023-04-03T10:28:40;7.13;;;2.80;;
8927;SDS011;4499;48.304;11.902;2023-04-03T10:31:17;4.13;;;2.50;;
8927;SDS011;4499;48.304;11.902;2023-04-03T10:33:55;4.27;;;2.27;;
8927;SDS011;4499;48.304;11.902;2023-04-03T10:36:36;3.83;;;2.73;;
8927;SDS011;4499;48.304;11.902;2023-04-03T10:39:15;3.37;;;2.03;;
8927;SDS011;4499;48.304;11.902;2023-04-03T10:41:56;5.03;;;2.70;;
8927;SDS011;4499;48.304;11.902;2023-04-03T10:44:47;5.57;;;2.13;;
8927;SDS011;4499;48.304;11.902;2023-04-03T10:47:29;4.07;;;2.50;;
8927;SDS011;4499;48.304;11.902;2023-04-03T10:50:08;3.87;;;2.10;;
8927;SDS011;4499;48.304;11.902;2023-04-03T10:52:57;5.47;;;2.43;;
8927;SDS011;4499;48.304;11.902;2023-04-03T10:55:34;3.63;;;2.30;;
8927;SDS011;4499;48.304;11.902;2023-04-03T10:58:05;4.33;;;2.43;;
8927;SDS011;4499;48.304;11.902;2023-04-03T11:00:42;4.23;;;2.00;;
8927;SDS011;4499;48.304;11.902;2023-04-03T11:03:17;4.30;;;2.40;;
8927;SDS011;4499;48.304;11.902;2023-04-03T11:05:57;5.00;;;2.10;;
8927;SDS011;4499;48.304;11.902;2023-04-03T11:08:30;4.83;;;2.40;;
8927;SDS011;4499;48.304;11.902;2023-04-03T11:11:03;3.60;;;2.27;;
8927;SDS011;4499;48.304;11.902;2023-04-03T11:13:37;3.67;;;2.10;;
8927;SDS011;4499;48.304;11.902;2023-04-03T11:16:11;4.07;;;2.10;;
8927;SDS011;4499;48.304;11.902;2023-04-03T11:18:47;3.43;;;2.20;;
8927;SDS011;4499;48.304;11.902;2023-04-03T11:21:20;4.07;;;2.00;;
8927;SDS011;4499;48.304;11.902;2023-04-03T11:23:53;4.57;;;2.37;;
8927;SDS011;4499;48.304;11.902;2023-04-03T11:26:27;3.27;;;2.00;;
8927;SDS011;4499;48.304;11.902;2023-04-03T11:29:00;4.50;;;2.23;;
8927;SDS011;4499;48.304;11.902;2023-04-03T11:31:35;3.97;;;2.23;;
8927;SDS011;4499;48.304;11.902;2023-04-03T11:34:21;4.87;;;1.93;;
8927;SDS011;4499;48.304;11.902;2023-04-03T11:37:01;3.00;;;1.97;;
8927;SDS011;4499;48.304;11.902;2023-04-03T11:39:32;3.37;;;1.97;;
8927;SDS011;4499;48.304;11.902;2023-04-03T11:42:14;2.43;;;1.80;;
8927;SDS011;4499;48.304;11.902;2023-04-03T11:44:44;2.87;;;1.53;;
8927;SDS011;4499;48.304;11.902;2023-04-03T11:47:43;2.90;;;1.80;;
8927;SDS011;4499;48.304;11.902;2023-04-03T11:53:26;3.47;;;1.80;;
8927;SDS011;4499;48.304;11.902;2023-04-03T12:01:49;5.10;;;1.90;;
8927;SDS011;4499;48.304;11.902;2023-04-03T12:04:18;3.37;;;2.03;;
8927;SDS011;4499;48.304;11.902;2023-04-03T12:09:56;6.23;;;3.20;;
8927;SDS011;4499;48.304;11.902;2023-04-03T12:12:37;2.70;;;2.20;;
8927;SDS011;4499;48.304;11.902;2023-04-03T12:15:21;2.77;;;1.90;;
8927;SDS011;4499;48.304;11.902;2023-04-03T12:21:09;3.43;;;1.80;;
8927;SDS011;4499;48.304;11.902;2023-04-03T12:26:50;3.47;;;1.83;;
8927;SDS011;4499;48.304;11.902;2023-04-03T12:29:33;4.43;;;1.90;;
8927;SDS011;4499;48.304;11.902;2023-04-03T12:32:10;6.30;;;2.20;;
8927;SDS011;4499;48.304;11.902;2023-04-03T12:34:54;2.37;;;1.80;;
8927;SDS011;4499;48.304;11.902;2023-04-03T12:37:38;2.20;;;1.70;;
8927;SDS011;4499;48.304;11.902;2023-04-03T12:40:18;4.80;;;1.83;;
8927;SDS011;4499;48.304;11.902;2023-04-03T12:43:09;3.53;;;2.00;;
8927;SDS011;4499;48.304;11.902;2023-04-03T12:45:56;4.93;;;1.90;;
8927;SDS011;4499;48.304;11.902;2023-04-03T12:48:30;2.97;;;1.60;;
8927;SDS011;4499;48.304;11.902;2023-04-03T12:51:01;5.70;;;1.83;;
8927;SDS011;4499;48.304;11.902;2023-04-03T12:53:31;3.43;;;1.90;;
8927;SDS011;4499;48.304;11.902;2023-04-03T12:58:51;2.63;;;1.70;;
8927;SDS011;4499;48.304;11.902;2023-04-03T13:01:21;2.93;;;1.60;;
8927;SDS011;4499;48.304;11.902;2023-04-03T13:03:52;2.20;;;1.60;;
8927;SDS011;4499;48.304;11.902;2023-04-03T13:06:23;3.73;;;1.90;;
8927;SDS011;4499;48.304;11.902;2023-04-03T13:08:55;4.67;;;2.13;;
8927;SDS011;4499;48.304;11.902;2023-04-03T13:11:26;3.17;;;1.57;;
8927;SDS011;4499;48.304;11.902;2023-04-03T13:13:58;4.37;;;1.90;;
8927;SDS011;4499;48.304;11.902;2023-04-03T13:16:28;5.63;;;1.97;;
8927;SDS011;4499;48.304;11.902;2023-04-03T13:18:57;3.67;;;1.77;;
8927;SDS011;4499;48.304;11.902;2023-04-03T13:21:26;3.47;;;2.03;;
8927;SDS011;4499;48.304;11.902;2023-04-03T13:23:58;3.20;;;1.83;;
8927;SDS011;4499;48.304;11.902;2023-04-03T13:26:41;3.33;;;2.00;;
8927;SDS011;4499;48.304;11.902;2023-04-03T13:29:18;2.97;;;1.80;;
8927;SDS011;4499;48.304;11.902;2023-04-03T13:31:56;3.07;;;1.70;;
8927;SDS011;4499;48.304;11.902;2023-04-03T13:34:26;2.57;;;1.67;;
8927;SDS011;4499;48.304;11.902;2023-04-03T13:37:00;3.47;;;1.83;;
8927;SDS011;4499;48.304;11.902;2023-04-03T13:39:31;4.13;;;1.70;;
8927;SDS011;4499;48.304;11.902;2023-04-03T13:42:03;3.90;;;1.90;;
8927;SDS011;4499;48.304;11.902;2023-04-03T13:44:43;4.07;;;1.90;;
8927;SDS011;4499;48.304;11.902;2023-04-03T13:47:16;3.57;;;1.57;;
8927;SDS011;4499;48.304;11.902;2023-04-03T13:49:58;2.83;;;1.70;;
8927;SDS011;4499;48.304;11.902;2023-04-03T13:52:28;2.23;;;1.37;;
8927;SDS011;4499;48.304;11.902;2023-04-03T13:55:03;2.67;;;1.50;;
8927;SDS011;4499;48.304;11.902;2023-04-03T13:57:57;3.93;;;1.90;;
8927;SDS011;4499;48.304;11.902;2023-04-03T14:00:28;2.47;;;1.70;;
8927;SDS011;4499;48.304;11.902;2023-04-03T14:03:12;3.43;;;1.50;;
8927;SDS011;4499;48.304;11.902;2023-04-03T14:05:46;4.63;;;1.70;;
8927;SDS011;4499;48.304;11.902;2023-04-03T14:08:14;2.60;;;1.80;;
8927;SDS011;4499;48.304;11.902;2023-04-03T14:10:51;3.03;;;1.90;;
8927;SDS011;4499;48.304;11.902;2023-04-03T14:13:21;2.50;;;1.80;;
8927;SDS011;4499;48.304;11.902;2023-04-03T14:15:49;4.47;;;1.90;;
8927;SDS011;4499;48.304;11.902;2023-04-03T14:18:21;4.93;;;1.87;;
8927;SDS011;4499;48.304;11.902;2023-04-03T14:20:49;3.13;;;2.07;;
8927;SDS011;4499;48.304;11.902;2023-04-03T14:23:18;3.63;;;2.40;;
8927;SDS011;4499;48.304;11.902;2023-04-03T14:25:46;2.60;;;1.83;;
8927;SDS011;4499;48.304;11.902;2023-04-03T14:28:15;3.63;;;1.90;;
8927;SDS011;4499;48.304;11.902;2023-04-03T14:30:46;2.80;;;1.80;;
8927;SDS011;4499;48.304;11.902;2023-04-03T14:33:16;4.00;;;1.80;;
8927;SDS011;4499;48.304;11.902;2023-04-03T14:35:47;4.97;;;2.00;;
8927;SDS011;4499;48.304;11.902;2023-04-03T14:38:21;4.50;;;2.00;;
8927;SDS011;4499;48.304;11.902;2023-04-03T14:40:53;2.93;;;1.57;;
8927;SDS011;4499;48.304;11.902;2023-04-03T14:43:35;3.33;;;1.60;;
8927;SDS011;4499;48.304;11.902;2023-04-03T14:46:04;4.60;;;1.60;;
8927;SDS011;4499;48.304;11.902;2023-04-03T14:48:37;3.77;;;2.40;;
8927;SDS011;4499;48.304;11.902;2023-04-03T14:51:05;2.87;;;1.80;;
8927;SDS011;4499;48.304;11.902;2023-04-03T14:53:34;4.73;;;1.77;;
8927;SDS011;4499;48.304;11.902;2023-04-03T14:56:08;2.63;;;1.83;;
8927;SDS011;4499;48.304;11.902;2023-04-03T14:58:39;2.13;;;1.67;;
8927;SDS011;4499;48.304;11.902;2023-04-03T15:01:10;2.07;;;1.77;;
8927;SDS011;4499;48.304;11.902;2023-04-03T15:03:40;2.80;;;1.60;;
8927;SDS011;4499;48.304;11.902;2023-04-03T15:06:09;3.33;;;1.80;;
8927;SDS011;4499;48.304;11.902;2023-04-03T15:08:39;2.70;;;1.70;;
8927;SDS011;4499;48.304;11.902;2023-04-03T15:11:10;3.07;;;1.80;;
8927;SDS011;4499;48.304;11.902;2023-04-03T15:13:38;4.03;;;1.90;;
8927;SDS011;4499;48.304;11.902;2023-04-03T15:16:12;3.70;;;2.00;;
8927;SDS011;4499;48.304;11.902;2023-04-03T15:18:44;3.83;;;1.60;;
8927;SDS011;4499;48.304;11.902;2023-04-03T15:21:13;2.60;;;1.73;;
8927;SDS011;4499;48.304;11.902;2023-04-03T15:23:41;2.70;;;1.73;;
8927;SDS011;4499;48.304;11.902;2023-04-03T15:26:09;2.97;;;1.80;;
8927;SDS011;4499;48.304;11.902;2023-04-03T15:28:38;3.43;;;1.80;;
8927;SDS011;4499;48.304;11.902;2023-04-03T15:31:08;3.63;;;1.77;;
8927;SDS011;4499;48.304;11.902;2023-04-03T15:33:38;2.50;;;1.70;;
8927;SDS011;4499;48.304;11.902;2023-04-03T15:36:06;3.77;;;1.60;;
8927;SDS011;4499;48.304;11.902;2023-04-03T15:38:55;3.57;;;1.87;;
8927;SDS011;4499;48.304;11.902;2023-04-03T15:41:23;3.37;;;1.90;;
8927;SDS011;4499;48.304;11.902;2023-04-03T15:43:52;2.37;;;1.70;;
8927;SDS011;4499;48.304;11.902;2023-04-03T15:46:20;3.73;;;1.50;;
8927;SDS011;4499;48.304;11.902;2023-04-03T15:48:49;3.87;;;1.90;;